createdAt,value
2018-01-27T00:00:28.467Z,57.50
2018-01-27T00:02:56.876Z,61.47
2018-01-27T00:05:25.367Z,59.87
2018-01-27T00:07:53.754Z,54.00
2018-01-27T00:10:22.208Z,49.13
2018-01-27T00:12:50.757Z,55.13
2018-01-27T00:15:19.325Z,58.80
2018-01-27T00:17:47.869Z,50.00
2018-01-27T00:20:16.556Z,52.60
2018-01-27T00:22:52.815Z,53.00
2018-01-27T00:25:21.317Z,52.87
2018-01-27T00:27:49.789Z,50.43
2018-01-27T00:30:18.344Z,50.70
2018-01-27T00:32:46.847Z,51.90
2018-01-27T00:35:15.340Z,53.77
2018-01-27T00:37:43.908Z,53.97
2018-01-27T00:40:12.468Z,58.80
2018-01-27T00:42:41.055Z,59.87
2018-01-27T00:45:09.645Z,62.93
2018-01-27T00:47:38.108Z,49.20
2018-01-27T00:50:06.703Z,58.53
2018-01-27T00:52:35.110Z,50.60
2018-01-27T00:55:03.579Z,52.73
2018-01-27T00:57:32.175Z,49.13
2018-01-27T01:00:00.659Z,53.83
2018-01-27T01:02:30.076Z,55.90
2018-01-27T01:04:58.596Z,53.47
2018-01-27T01:07:27.101Z,52.13
2018-01-27T01:09:55.606Z,44.20
2018-01-27T01:12:24.190Z,63.93
2018-01-27T01:14:52.708Z,56.77
2018-01-27T01:17:21.970Z,56.30
2018-01-27T01:19:50.499Z,63.13
2018-01-27T01:22:19.000Z,59.70
2018-01-27T01:24:47.427Z,57.93
2018-01-27T01:27:15.973Z,67.63
2018-01-27T01:29:44.454Z,73.90
2018-01-27T01:32:12.958Z,79.70
2018-01-27T01:34:41.487Z,82.87
2018-01-27T01:37:09.894Z,82.10
2018-01-27T01:39:38.462Z,88.13
2018-01-27T01:42:06.909Z,74.17
2018-01-27T01:44:35.325Z,77.47
2018-01-27T01:47:03.842Z,87.20
2018-01-27T01:49:32.383Z,83.03
2018-01-27T01:52:00.808Z,73.30
2018-01-27T01:54:29.240Z,84.60
2018-01-27T01:56:57.743Z,76.33
2018-01-27T01:59:26.275Z,81.77
2018-01-27T02:01:54.931Z,89.57
2018-01-27T02:04:23.391Z,85.20
2018-01-27T02:06:51.864Z,93.60
2018-01-27T02:09:20.355Z,92.63
2018-01-27T02:11:48.786Z,90.37
2018-01-27T02:14:17.419Z,87.93
2018-01-27T02:16:45.918Z,93.70
2018-01-27T02:19:14.380Z,94.37
2018-01-27T02:21:42.803Z,74.10
2018-01-27T02:24:11.360Z,75.13
2018-01-27T02:26:39.841Z,82.80
2018-01-27T02:29:08.459Z,83.17
2018-01-27T02:31:36.891Z,78.83
2018-01-27T02:34:05.335Z,74.60
2018-01-27T02:36:34.553Z,74.93
2018-01-27T02:39:03.001Z,94.40
2018-01-27T02:41:31.520Z,89.80
2018-01-27T02:44:00.070Z,88.97
2018-01-27T02:46:29.321Z,98.30
2018-01-27T02:48:57.776Z,79.83
2018-01-27T02:51:26.242Z,86.70
2018-01-27T02:53:55.357Z,82.53
2018-01-27T02:56:23.802Z,80.03
2018-01-27T02:58:52.973Z,77.27
2018-01-27T03:01:21.368Z,81.53
2018-01-27T03:03:49.812Z,79.27
2018-01-27T03:06:18.181Z,89.00
2018-01-27T03:08:46.827Z,84.63
2018-01-27T03:11:15.965Z,81.00
2018-01-27T03:13:44.406Z,78.17
2018-01-27T03:16:12.828Z,86.20
2018-01-27T03:18:41.411Z,80.40
2018-01-27T03:21:10.041Z,92.57
2018-01-27T03:23:38.461Z,84.73
2018-01-27T03:26:07.058Z,82.40
2018-01-27T03:28:35.540Z,94.93
2018-01-27T03:31:03.975Z,71.77
2018-01-27T03:33:32.559Z,80.03
2018-01-27T03:36:01.785Z,81.43
2018-01-27T03:38:30.279Z,76.70
2018-01-27T03:40:58.748Z,78.27
2018-01-27T03:43:27.247Z,90.00
2018-01-27T03:45:55.790Z,82.93
2018-01-27T03:48:25.121Z,79.80
2018-01-27T03:50:53.570Z,73.40
2018-01-27T03:53:22.227Z,95.13
2018-01-27T03:55:50.780Z,80.40
2018-01-27T03:58:19.368Z,79.83
2018-01-27T04:00:47.891Z,82.60
2018-01-27T04:03:16.637Z,95.20
2018-01-27T04:05:45.106Z,86.13
2018-01-27T04:08:13.607Z,84.80
2018-01-27T04:10:42.385Z,88.73
2018-01-27T04:13:10.997Z,77.67
2018-01-27T04:15:39.535Z,92.83
2018-01-27T04:18:08.235Z,85.40
2018-01-27T04:20:36.828Z,82.43
2018-01-27T04:23:05.441Z,93.60
2018-01-27T04:25:33.884Z,91.17
2018-01-27T04:28:02.370Z,87.00
2018-01-27T04:30:30.856Z,92.43
2018-01-27T04:33:00.248Z,87.40
2018-01-27T04:35:28.871Z,82.83
2018-01-27T04:37:57.333Z,77.13
2018-01-27T04:40:25.999Z,71.70
2018-01-27T04:42:54.683Z,80.00
2018-01-27T04:45:23.196Z,81.10
2018-01-27T04:47:51.874Z,84.00
2018-01-27T04:50:20.430Z,92.50
2018-01-27T04:52:49.013Z,85.30
2018-01-27T04:55:17.527Z,87.33
2018-01-27T04:57:46.179Z,77.33
2018-01-27T05:00:14.598Z,78.50
2018-01-27T05:02:43.040Z,82.23
2018-01-27T05:05:11.552Z,86.13
2018-01-27T05:07:39.980Z,84.50
2018-01-27T05:10:09.310Z,81.90
2018-01-27T05:12:37.917Z,86.23
2018-01-27T05:15:06.545Z,99.80
2018-01-27T05:17:35.063Z,84.77
2018-01-27T05:20:03.820Z,77.57
2018-01-27T05:22:32.289Z,90.87
2018-01-27T05:25:00.696Z,86.90
2018-01-27T05:27:29.132Z,85.20
2018-01-27T05:29:57.603Z,98.47
2018-01-27T05:32:26.163Z,82.87
2018-01-27T05:34:54.770Z,75.80
2018-01-27T05:37:23.306Z,75.87
2018-01-27T05:39:51.874Z,70.13
2018-01-27T05:42:21.411Z,69.67
2018-01-27T05:44:49.960Z,74.97
2018-01-27T05:47:19.197Z,66.80
2018-01-27T05:49:47.647Z,73.97
2018-01-27T05:52:17.010Z,82.70
2018-01-27T05:54:45.508Z,82.43
2018-01-27T05:57:14.000Z,80.93
2018-01-27T05:59:43.263Z,75.07
2018-01-27T06:02:11.690Z,81.93
2018-01-27T06:04:40.989Z,81.43
2018-01-27T06:07:10.274Z,73.47
2018-01-27T06:09:39.573Z,77.17
2018-01-27T06:12:08.105Z,86.00
2018-01-27T06:14:36.555Z,81.13
2018-01-27T06:17:05.926Z,79.60
2018-01-27T06:19:34.414Z,68.43
2018-01-27T06:22:02.998Z,81.43
2018-01-27T06:24:32.265Z,72.90
2018-01-27T06:27:00.776Z,73.83
2018-01-27T06:29:30.045Z,74.43
2018-01-27T06:31:58.554Z,74.13
2018-01-27T06:34:27.137Z,65.47
2018-01-27T06:36:55.638Z,77.13
2018-01-27T06:39:24.852Z,72.23
2018-01-27T06:41:53.301Z,62.23
2018-01-27T06:44:21.712Z,79.70
2018-01-27T06:46:50.186Z,73.80
2018-01-27T06:49:19.384Z,68.10
2018-01-27T06:51:47.820Z,72.73
2018-01-27T06:54:16.376Z,76.27
2018-01-27T06:56:45.001Z,61.50
2018-01-27T06:59:13.514Z,74.17
2018-01-27T07:01:42.105Z,66.47
2018-01-27T07:04:10.639Z,67.43
2018-01-27T07:06:39.351Z,67.30
2018-01-27T07:09:08.604Z,78.07
2018-01-27T07:11:37.144Z,82.40
2018-01-27T07:14:05.628Z,82.50
2018-01-27T07:16:34.782Z,78.60
2018-01-27T07:19:03.544Z,72.70
2018-01-27T07:21:31.922Z,71.70
2018-01-27T07:24:00.352Z,76.43
2018-01-27T07:26:29.503Z,76.60
2018-01-27T07:28:57.850Z,73.83
2018-01-27T07:31:27.773Z,69.27
2018-01-27T07:33:56.211Z,77.23
2018-01-27T07:36:24.685Z,69.00
2018-01-27T07:38:53.100Z,66.70
2018-01-27T07:41:22.275Z,58.93
2018-01-27T07:43:50.640Z,64.70
2018-01-27T07:46:19.008Z,58.50
2018-01-27T07:48:47.479Z,53.50
2018-01-27T07:51:15.922Z,53.90
2018-01-27T07:53:44.288Z,54.07
2018-01-27T07:56:13.446Z,55.80
2018-01-27T07:58:41.873Z,55.30
2018-01-27T08:01:10.266Z,57.47
2018-01-27T08:03:41.214Z,58.97
2018-01-27T08:06:09.621Z,59.03
2018-01-27T08:08:39.508Z,52.77
2018-01-27T08:11:08.072Z,59.37
2018-01-27T08:13:36.644Z,48.57
2018-01-27T08:16:05.952Z,51.07
2018-01-27T08:18:35.349Z,53.13
2018-01-27T08:21:04.845Z,55.43
2018-01-27T08:23:34.189Z,52.50
2018-01-27T08:26:03.618Z,56.07
2018-01-27T08:28:32.166Z,58.60
2018-01-27T08:31:00.577Z,56.57
2018-01-27T08:33:29.049Z,90.93
2018-01-27T08:35:57.528Z,82.53
2018-01-27T08:38:26.250Z,85.13
2018-01-27T08:40:55.660Z,83.90
2018-01-27T08:43:25.059Z,79.33
2018-01-27T08:45:54.401Z,72.97
2018-01-27T08:48:28.272Z,113.53
2018-01-27T08:50:57.808Z,102.10
2018-01-27T08:53:26.596Z,90.60
2018-01-27T08:55:55.001Z,66.63
2018-01-27T08:58:23.410Z,55.03
2018-01-27T09:00:52.657Z,57.17
2018-01-27T09:03:21.232Z,63.83
2018-01-27T09:05:49.809Z,51.67
2018-01-27T09:08:19.142Z,60.77
2018-01-27T09:10:48.188Z,65.90
2018-01-27T09:13:16.767Z,71.70
2018-01-27T09:15:45.600Z,68.87
2018-01-27T09:18:14.079Z,64.70
2018-01-27T09:20:42.483Z,68.73
2018-01-27T09:23:10.942Z,63.03
2018-01-27T09:25:39.524Z,73.10
2018-01-27T09:28:08.145Z,63.87
2018-01-27T09:30:36.619Z,68.00
2018-01-27T09:33:05.205Z,61.53
2018-01-27T09:35:33.690Z,72.20
2018-01-27T09:38:02.188Z,70.80
2018-01-27T09:40:30.776Z,67.63
2018-01-27T09:42:59.211Z,72.43
2018-01-27T09:45:27.644Z,71.07
2018-01-27T09:47:56.918Z,74.97
2018-01-27T09:50:26.577Z,70.63
2018-01-27T09:52:55.207Z,78.40
2018-01-27T09:55:23.715Z,83.27
2018-01-27T09:57:52.962Z,69.47
2018-01-27T10:00:21.434Z,81.97
2018-01-27T10:02:49.872Z,79.63
2018-01-27T10:05:18.475Z,74.55
2018-01-27T10:07:46.884Z,78.67
2018-01-27T10:10:15.305Z,74.67
2018-01-27T10:12:43.729Z,84.87
2018-01-27T10:15:12.227Z,64.33
2018-01-27T10:17:40.679Z,87.90
2018-01-27T10:20:09.229Z,76.93
2018-01-27T10:22:37.713Z,84.40
2018-01-27T10:25:06.076Z,92.63
2018-01-27T10:28:01.644Z,75.83
2018-01-27T10:30:30.062Z,75.43
2018-01-27T10:32:58.420Z,80.90
2018-01-27T10:35:26.796Z,86.90
2018-01-27T10:37:55.145Z,76.53
2018-01-27T10:40:24.268Z,83.10
2018-01-27T10:42:52.651Z,72.63
2018-01-27T10:45:21.008Z,73.00
2018-01-27T10:47:50.180Z,73.80
2018-01-27T10:50:18.581Z,69.20
2018-01-27T10:52:47.713Z,72.53
2018-01-27T10:55:16.309Z,62.80
2018-01-27T10:57:44.799Z,69.07
2018-01-27T11:00:13.243Z,65.73
2018-01-27T11:02:41.801Z,69.47
2018-01-27T11:05:10.249Z,68.17
2018-01-27T11:07:38.785Z,66.23
2018-01-27T11:10:07.357Z,58.43
2018-01-27T11:12:35.765Z,56.63
2018-01-27T11:15:04.170Z,58.20
2018-01-27T11:17:32.617Z,57.77
2018-01-27T11:20:01.105Z,56.07
2018-01-27T11:22:29.577Z,47.73
2018-01-27T11:24:58.120Z,50.47
2018-01-27T11:27:26.657Z,42.23
2018-01-27T11:29:55.164Z,44.40
2018-01-27T11:32:23.568Z,45.37
2018-01-27T11:34:52.792Z,34.40
2018-01-27T11:37:21.213Z,39.40
2018-01-27T11:39:49.690Z,42.27
2018-01-27T11:42:18.173Z,52.97
2018-01-27T11:44:46.711Z,49.53
2018-01-27T11:47:15.164Z,39.27
2018-01-27T11:49:43.633Z,28.70
2018-01-27T11:52:12.016Z,26.90
2018-01-27T11:54:40.491Z,29.00
2018-01-27T11:57:09.000Z,35.77
2018-01-27T11:59:38.204Z,29.17
2018-01-27T12:02:07.416Z,32.70
2018-01-27T12:04:35.799Z,24.70
2018-01-27T12:07:04.223Z,33.03
2018-01-27T12:09:32.696Z,23.93
2018-01-27T12:12:01.071Z,27.50
2018-01-27T12:14:29.434Z,21.17
2018-01-27T12:16:57.824Z,23.40
2018-01-27T12:19:26.257Z,22.90
2018-01-27T12:21:55.393Z,25.77
2018-01-27T12:24:23.785Z,28.57
2018-01-27T12:26:52.200Z,28.10
2018-01-27T12:29:21.403Z,23.70
2018-01-27T12:31:50.651Z,26.20
2018-01-27T12:34:19.028Z,28.53
2018-01-27T12:36:47.729Z,28.70
2018-01-27T12:39:16.271Z,55.73
2018-01-27T12:41:44.775Z,39.30
2018-01-27T12:44:13.312Z,38.97
2018-01-27T12:46:42.469Z,22.53
2018-01-27T12:49:10.917Z,25.30
2018-01-27T12:51:39.354Z,29.53
2018-01-27T12:54:07.897Z,22.73
2018-01-27T12:56:36.612Z,25.33
2018-01-27T12:59:05.025Z,26.00
2018-01-27T13:01:33.545Z,20.93
2018-01-27T13:04:02.026Z,20.90
2018-01-27T13:06:30.530Z,20.73
2018-01-27T13:08:59.560Z,25.80
2018-01-27T13:11:29.258Z,27.73
2018-01-27T13:13:57.800Z,20.83
2018-01-27T13:16:26.264Z,31.10
2018-01-27T13:18:54.864Z,26.00
2018-01-27T13:21:23.359Z,25.93
2018-01-27T13:23:51.823Z,24.87
2018-01-27T13:26:20.396Z,21.33
2018-01-27T13:28:48.838Z,26.73
2018-01-27T13:31:17.265Z,32.10
2018-01-27T13:33:45.746Z,27.63
2018-01-27T13:36:14.182Z,27.70
2018-01-27T13:38:43.544Z,25.80
2018-01-27T13:41:12.745Z,27.27
2018-01-27T13:43:41.258Z,28.60
2018-01-27T13:46:10.531Z,24.33
2018-01-27T13:48:38.999Z,27.20
2018-01-27T13:51:07.462Z,20.57
2018-01-27T13:53:35.948Z,28.20
2018-01-27T13:56:05.045Z,26.50
2018-01-27T13:58:33.460Z,25.43
2018-01-27T14:01:02.018Z,28.23
2018-01-27T14:03:30.454Z,23.37
2018-01-27T14:05:59.752Z,29.67
2018-01-27T14:08:28.916Z,19.40
2018-01-27T14:10:57.439Z,23.40
2018-01-27T14:13:25.972Z,24.53
2018-01-27T14:15:54.510Z,26.67
2018-01-27T14:18:22.948Z,29.23
2018-01-27T14:20:51.441Z,28.10
2018-01-27T14:23:19.859Z,28.00
2018-01-27T14:25:48.355Z,28.90
2018-01-27T14:28:16.772Z,28.03
2018-01-27T14:30:45.271Z,27.00
2018-01-27T14:33:14.506Z,29.60
2018-01-27T14:35:42.937Z,23.53
2018-01-27T14:38:11.348Z,28.73
2018-01-27T14:40:40.512Z,25.40
2018-01-27T14:43:08.955Z,27.53
2018-01-27T14:45:37.427Z,22.83
2018-01-27T14:48:06.096Z,24.63
2018-01-27T14:50:34.469Z,22.03
2018-01-27T14:53:03.663Z,29.60
2018-01-27T14:55:32.966Z,26.80
2018-01-27T14:58:01.402Z,24.93
2018-01-27T15:00:30.140Z,27.73
2018-01-27T15:02:58.681Z,20.23
2018-01-27T15:05:27.245Z,25.20
2018-01-27T15:07:55.754Z,27.47
2018-01-27T15:10:24.294Z,32.27
2018-01-27T15:12:52.859Z,24.37
2018-01-27T15:15:21.438Z,23.60
2018-01-27T15:17:49.931Z,23.80
2018-01-27T15:20:18.391Z,22.80
2018-01-27T15:22:48.608Z,26.27
2018-01-27T15:25:17.891Z,27.63
2018-01-27T15:27:47.118Z,24.73
2018-01-27T15:30:15.633Z,26.07
2018-01-27T15:32:44.085Z,23.33
2018-01-27T15:35:13.309Z,27.33
2018-01-27T15:37:41.729Z,26.83
2018-01-27T15:40:10.165Z,28.00
2018-01-27T15:42:38.577Z,27.57
2018-01-27T15:45:07.212Z,23.13
2018-01-27T15:47:35.621Z,33.50
2018-01-27T15:50:04.154Z,34.27
2018-01-27T15:52:32.668Z,32.23
2018-01-27T15:55:01.131Z,33.67
2018-01-27T15:57:29.516Z,32.17
2018-01-27T15:59:57.968Z,27.40
2018-01-27T16:02:27.101Z,36.73
2018-01-27T16:04:55.585Z,35.83
2018-01-27T16:07:24.071Z,33.77
2018-01-27T16:09:52.747Z,38.97
2018-01-27T16:12:21.196Z,43.30
2018-01-27T16:14:50.350Z,37.40
2018-01-27T16:17:19.076Z,42.10
2018-01-27T16:19:48.209Z,36.87
2018-01-27T16:22:16.576Z,37.03
2018-01-27T16:24:45.054Z,34.30
2018-01-27T16:27:13.538Z,37.90
2018-01-27T16:29:41.995Z,36.03
2018-01-27T16:32:11.203Z,54.27
2018-01-27T16:34:39.674Z,39.63
2018-01-27T16:37:08.938Z,35.40
2018-01-27T16:39:37.336Z,37.93
2018-01-27T16:42:05.857Z,34.60
2018-01-27T16:44:34.286Z,37.40
2018-01-27T16:47:02.676Z,33.50
2018-01-27T16:49:31.166Z,43.90
2018-01-27T16:51:59.621Z,96.60
2018-01-27T16:54:28.126Z,60.47
2018-01-27T16:56:56.576Z,75.80
2018-01-27T16:59:24.969Z,46.07
2018-01-27T17:01:53.541Z,49.20
2018-01-27T17:04:21.985Z,36.77
2018-01-27T17:06:50.458Z,40.43
2018-01-27T17:09:19.664Z,36.93
2018-01-27T17:11:48.081Z,78.97
2018-01-27T17:14:16.532Z,35.77
2018-01-27T17:16:44.942Z,37.57
2018-01-27T17:19:13.346Z,38.43
2018-01-27T17:21:41.751Z,39.97
2018-01-27T17:24:10.224Z,44.33
2018-01-27T17:26:39.363Z,41.03
2018-01-27T17:29:07.753Z,39.30
2018-01-27T17:31:36.187Z,37.57
2018-01-27T17:34:05.395Z,37.73
2018-01-27T17:36:33.861Z,40.17
2018-01-27T17:39:03.072Z,41.37
2018-01-27T17:41:31.450Z,41.23
2018-01-27T17:43:59.837Z,41.50
2018-01-27T17:46:28.275Z,42.83
2018-01-27T17:48:56.748Z,41.93
2018-01-27T17:51:25.193Z,44.13
2018-01-27T17:53:53.581Z,45.50
2018-01-27T17:56:21.968Z,38.70
2018-01-27T17:58:50.409Z,42.53
2018-01-27T18:01:18.866Z,47.33
2018-01-27T18:03:47.249Z,41.70
2018-01-27T18:06:15.858Z,44.13
2018-01-27T18:08:44.312Z,44.33
2018-01-27T18:11:13.523Z,40.97
2018-01-27T18:13:42.719Z,50.57
2018-01-27T18:16:11.916Z,54.23
2018-01-27T18:18:41.083Z,46.07
2018-01-27T18:21:09.515Z,46.00
2018-01-27T18:23:37.973Z,48.60
2018-01-27T18:26:07.216Z,53.97
2018-01-27T18:28:35.617Z,49.47
2018-01-27T18:31:03.981Z,53.50
2018-01-27T18:33:32.416Z,52.93
2018-01-27T18:36:00.814Z,54.30
2018-01-27T18:38:29.283Z,52.20
2018-01-27T18:40:57.669Z,53.33
2018-01-27T18:43:26.053Z,63.90
2018-01-27T18:45:54.516Z,69.13
2018-01-27T18:48:22.959Z,55.80
2018-01-27T18:50:51.441Z,58.47
2018-01-27T18:53:19.857Z,61.47
2018-01-27T18:55:48.298Z,56.00
2018-01-27T18:58:16.664Z,52.97
2018-01-27T19:00:45.059Z,60.70
2018-01-27T19:03:13.428Z,61.27
2018-01-27T19:05:41.896Z,53.23
2018-01-27T19:08:10.349Z,61.73
2018-01-27T19:10:38.846Z,58.20
2018-01-27T19:13:07.309Z,63.70
2018-01-27T19:15:35.791Z,54.33
2018-01-27T19:18:04.412Z,49.93
